Back to Top

Language: 

My Weather Underground Personal Weather Station Historical Data with Graphs...

Delerius Weather Station Historical Data
Daily Summary for April 18, 2017 Units:  Both    English   Metric
« Previous Day
Next Day »
Daily Weekly Monthly Yearly Custom
  High: Low: Average:
Temperature: 53.6 °F /  12 °C 33.1 °F /  0.6 °C 44.9 °F /  7.2 °C
Dew Point: 38.6 °F /  3.7 °C 29.3 °F /  -1.5 °C 34 °F /  1.1 °C
Humidity: 88 % 41 % 67 %
Wind Speed: 10.0 mph /  16.1 km/h - 3.9 mph /  6.3 km/h
Wind Gust: 19.0 mph /  30.6 km/h - -
Wind:- - SE
Pressure: 30.60 in /  1036.1 hPa 30.36 in /  1028 hPa -
Precipitation: 0.00 in /  0 mm    
Historical Graphs
 
 
Tabular Data for April 18, 2017
Time Temperature Dew Point Pressure Wind Wind Speed Wind Gust Humidity Rainfall Rate (Hourly) solar Conditions
00:01 43.7 °F /  6.5 °C 38.6 °F /  3.7 °C 30.36 in /  1028 hPa North 9.0 mph /  14.5 km/h 19.0 mph /  30.6 km/h 82 % 0.00 in /  0 mm 0 W/m2
00:06 43.3 °F /  6.3 °C 38.2 °F /  3.4 °C 30.36 in /  1028 hPa North 9.0 mph /  14.5 km/h 19.0 mph /  30.6 km/h 82 % 0.00 in /  0 mm 0 W/m2
00:11 43.3 °F /  6.3 °C 38.2 °F /  3.4 °C 30.37 in /  1028.3 hPa NNE 8.0 mph /  12.9 km/h 18.0 mph /  29 km/h 82 % 0.00 in /  0 mm 0 W/m2
00:16 43.2 °F /  6.2 °C 38.0 °F /  3.3 °C 30.37 in /  1028.3 hPa NNE 7.0 mph /  11.3 km/h 18.0 mph /  29 km/h 82 % 0.00 in /  0 mm 0 W/m2
00:21 43.0 °F /  6.1 °C 37.5 °F /  3.1 °C 30.37 in /  1028.3 hPa NNE 8.0 mph /  12.9 km/h 15.0 mph /  24.1 km/h 81 % 0.00 in /  0 mm 0 W/m2
00:26 42.8 °F /  6 °C 37.4 °F /  3 °C 30.37 in /  1028.3 hPa NNE 7.0 mph /  11.3 km/h 14.0 mph /  22.5 km/h 81 % 0.00 in /  0 mm 0 W/m2
00:31 42.6 °F /  5.9 °C 37.2 °F /  2.9 °C 30.37 in /  1028.3 hPa NNE 6.0 mph /  9.7 km/h 14.0 mph /  22.5 km/h 81 % 0.00 in /  0 mm 0 W/m2
00:36 42.4 °F /  5.8 °C 37.0 °F /  2.8 °C 30.38 in /  1028.7 hPa NNE 7.0 mph /  11.3 km/h 18.0 mph /  29 km/h 81 % 0.00 in /  0 mm 0 W/m2
00:41 42.4 °F /  5.8 °C 37.0 °F /  2.8 °C 30.38 in /  1028.7 hPa NNE 8.0 mph /  12.9 km/h 18.0 mph /  29 km/h 81 % 0.00 in /  0 mm 0 W/m2
00:46 42.3 °F /  5.7 °C 36.8 °F /  2.7 °C 30.38 in /  1028.7 hPa NNE 7.0 mph /  11.3 km/h 16.0 mph /  25.7 km/h 81 % 0.00 in /  0 mm 0 W/m2
00:51 42.1 °F /  5.6 °C 36.4 °F /  2.4 °C 30.38 in /  1028.7 hPa NNE 7.0 mph /  11.3 km/h 16.0 mph /  25.7 km/h 80 % 0.00 in /  0 mm 0 W/m2
00:57 42.1 °F /  5.6 °C 36.4 °F /  2.4 °C 30.39 in /  1029 hPa NNE 8.0 mph /  12.9 km/h 16.0 mph /  25.7 km/h 80 % 0.00 in /  0 mm 0 W/m2
01:02 42.1 °F /  5.6 °C 36.4 °F /  2.4 °C 30.39 in /  1029 hPa NNE 8.0 mph /  12.9 km/h 14.0 mph /  22.5 km/h 80 % 0.00 in /  0 mm 0 W/m2
01:07 41.9 °F /  5.5 °C 35.9 °F /  2.2 °C 30.39 in /  1029 hPa NNE 8.0 mph /  12.9 km/h 13.0 mph /  20.9 km/h 79 % 0.00 in /  0 mm 0 W/m2
01:12 41.7 °F /  5.4 °C 35.7 °F /  2.1 °C 30.39 in /  1029 hPa North 8.0 mph /  12.9 km/h 16.0 mph /  25.7 km/h 79 % 0.00 in /  0 mm 0 W/m2
01:13 41.7 °F /  5.4 °C 35.4 °F /  1.9 °C 30.39 in /  1029 hPa North 8.0 mph /  12.9 km/h 16.0 mph /  25.7 km/h 78 % 0.00 in /  0 mm 0 W/m2
01:18 41.5 °F /  5.3 °C 35.5 °F /  1.9 °C 30.39 in /  1029 hPa NNE 9.0 mph /  14.5 km/h 16.0 mph /  25.7 km/h 79 % 0.00 in /  0 mm 0 W/m2
01:23 41.4 °F /  5.2 °C 35.3 °F /  1.8 °C 30.40 in /  1029.3 hPa NNE 8.0 mph /  12.9 km/h 15.0 mph /  24.1 km/h 79 % 0.00 in /  0 mm 0 W/m2
01:28 41.2 °F /  5.1 °C 35.2 °F /  1.8 °C 30.40 in /  1029.3 hPa NNE 8.0 mph /  12.9 km/h 15.0 mph /  24.1 km/h 79 % 0.00 in /  0 mm 0 W/m2
01:33 40.8 °F /  4.9 °C 34.5 °F /  1.4 °C 30.40 in /  1029.3 hPa NNE 10.0 mph /  16.1 km/h 18.0 mph /  29 km/h 78 % 0.00 in /  0 mm 0 W/m2
01:38 40.6 °F /  4.8 °C 34.3 °F /  1.3 °C 30.40 in /  1029.3 hPa NNE 9.0 mph /  14.5 km/h 18.0 mph /  29 km/h 78 % 0.00 in /  0 mm 0 W/m2
01:43 40.5 °F /  4.7 °C 34.1 °F /  1.2 °C 30.40 in /  1029.3 hPa NNE 8.0 mph /  12.9 km/h 15.0 mph /  24.1 km/h 78 % 0.00 in /  0 mm 0 W/m2
01:48 40.3 °F /  4.6 °C 34.0 °F /  1.1 °C 30.40 in /  1029.3 hPa NNE 8.0 mph /  12.9 km/h 15.0 mph /  24.1 km/h 78 % 0.00 in /  0 mm 0 W/m2
01:53 40.3 °F /  4.6 °C 33.6 °F /  0.9 °C 30.40 in /  1029.3 hPa NNE 8.0 mph /  12.9 km/h 15.0 mph /  24.1 km/h 77 % 0.00 in /  0 mm 0 W/m2
01:58 40.1 °F /  4.5 °C 33.1 °F /  0.6 °C 30.40 in /  1029.3 hPa NNE 9.0 mph /  14.5 km/h 15.0 mph /  24.1 km/h 76 % 0.00 in /  0 mm 0 W/m2
02:03 39.9 °F /  4.4 °C 33.0 °F /  0.6 °C 30.41 in /  1029.7 hPa NNE 8.0 mph /  12.9 km/h 15.0 mph /  24.1 km/h 76 % 0.00 in /  0 mm 0 W/m2
02:08 39.7 °F /  4.3 °C 32.8 °F /  0.4 °C 30.41 in /  1029.7 hPa North 7.0 mph /  11.3 km/h 11.0 mph /  17.7 km/h 76 % 0.00 in /  0 mm 0 W/m2
02:13 39.7 °F /  4.3 °C 32.5 °F /  0.3 °C 30.40 in /  1029.3 hPa North 7.0 mph /  11.3 km/h 13.0 mph /  20.9 km/h 75 % 0.00 in /  0 mm 0 W/m2
02:18 39.7 °F /  4.3 °C 32.5 °F /  0.3 °C 30.40 in /  1029.3 hPa North 8.0 mph /  12.9 km/h 14.0 mph /  22.5 km/h 75 % 0.00 in /  0 mm 0 W/m2
02:23 39.6 °F /  4.2 °C 32.6 °F /  0.3 °C 30.40 in /  1029.3 hPa NNE 7.0 mph /  11.3 km/h 14.0 mph /  22.5 km/h 76 % 0.00 in /  0 mm 0 W/m2
02:28 39.4 °F /  4.1 °C 32.4 °F /  0.2 °C 30.40 in /  1029.3 hPa NNE 6.0 mph /  9.7 km/h 10.0 mph /  16.1 km/h 76 % 0.00 in /  0 mm 0 W/m2
02:33 39.4 °F /  4.1 °C 32.1 °F /  0.1 °C 30.40 in /  1029.3 hPa NNE 7.0 mph /  11.3 km/h 13.0 mph /  20.9 km/h 75 % 0.00 in /  0 mm 0 W/m2
02:38 39.4 °F /  4.1 °C 32.4 °F /  0.2 °C 30.40 in /  1029.3 hPa NNE 7.0 mph /  11.3 km/h 13.0 mph /  20.9 km/h 76 % 0.00 in /  0 mm 0 W/m2
02:43 39.0 °F /  3.9 °C 32.1 °F /  0.1 °C 30.40 in /  1029.3 hPa NNE 6.0 mph /  9.7 km/h 12.0 mph /  19.3 km/h 76 % 0.00 in /  0 mm 0 W/m2
02:48 39.0 °F /  3.9 °C 32.1 °F /  0.1 °C 30.40 in /  1029.3 hPa North 6.0 mph /  9.7 km/h 11.0 mph /  17.7 km/h 76 % 0.00 in /  0 mm 0 W/m2
02:53 39.0 °F /  3.9 °C 31.8 °F /  -0.1 °C 30.40 in /  1029.3 hPa North 4.0 mph /  6.4 km/h 11.0 mph /  17.7 km/h 75 % 0.00 in /  0 mm 0 W/m2
02:58 38.8 °F /  3.8 °C 31.9 °F /  -0.1 °C 30.41 in /  1029.7 hPa North 3.0 mph /  4.8 km/h 8.0 mph /  12.9 km/h 76 % 0.00 in /  0 mm 0 W/m2
03:03 38.8 °F /  3.8 °C 31.9 °F /  -0.1 °C 30.41 in /  1029.7 hPa NNW 4.0 mph /  6.4 km/h 11.0 mph /  17.7 km/h 76 % 0.00 in /  0 mm 0 W/m2
03:08 38.7 °F /  3.7 °C 31.7 °F /  -0.2 °C 30.41 in /  1029.7 hPa NNW 4.0 mph /  6.4 km/h 11.0 mph /  17.7 km/h 76 % 0.00 in /  0 mm 0 W/m2
03:13 38.7 °F /  3.7 °C 31.7 °F /  -0.2 °C 30.41 in /  1029.7 hPa North 4.0 mph /  6.4 km/h 10.0 mph /  16.1 km/h 76 % 0.00 in /  0 mm 0 W/m2
03:18 38.5 °F /  3.6 °C 31.6 °F /  -0.2 °C 30.41 in /  1029.7 hPa NNW 4.0 mph /  6.4 km/h 10.0 mph /  16.1 km/h 76 % 0.00 in /  0 mm 0 W/m2
03:23 38.3 °F /  3.5 °C 31.7 °F /  -0.2 °C 30.41 in /  1029.7 hPa NNW 3.0 mph /  4.8 km/h 8.0 mph /  12.9 km/h 77 % 0.00 in /  0 mm 0 W/m2
03:28 38.1 °F /  3.4 °C 31.5 °F /  -0.3 °C 30.41 in /  1029.7 hPa NNW 3.0 mph /  4.8 km/h 8.0 mph /  12.9 km/h 77 % 0.00 in /  0 mm 0 W/m2
03:33 37.9 °F /  3.3 °C 31.4 °F /  -0.3 °C 30.41 in /  1029.7 hPa NNW 4.0 mph /  6.4 km/h 9.0 mph /  14.5 km/h 77 % 0.00 in /  0 mm 0 W/m2
03:38 37.8 °F /  3.2 °C 31.5 °F /  -0.3 °C 30.41 in /  1029.7 hPa NNW 3.0 mph /  4.8 km/h 9.0 mph /  14.5 km/h 78 % 0.00 in /  0 mm 0 W/m2
03:43 37.8 °F /  3.2 °C 31.5 °F /  -0.3 °C 30.41 in /  1029.7 hPa NNW 3.0 mph /  4.8 km/h 8.0 mph /  12.9 km/h 78 % 0.00 in /  0 mm 0 W/m2
03:48 37.6 °F /  3.1 °C 31.3 °F /  -0.4 °C 30.42 in /  1030 hPa NNW 3.0 mph /  4.8 km/h 12.0 mph /  19.3 km/h 78 % 0.00 in /  0 mm 0 W/m2
03:53 37.6 °F /  3.1 °C 31.3 °F /  -0.4 °C 30.42 in /  1030 hPa North 4.0 mph /  6.4 km/h 12.0 mph /  19.3 km/h 78 % 0.00 in /  0 mm 0 W/m2
03:58 37.6 °F /  3.1 °C 31.3 °F /  -0.4 °C 30.42 in /  1030 hPa North 4.0 mph /  6.4 km/h 8.0 mph /  12.9 km/h 78 % 0.00 in /  0 mm 0 W/m2
04:03 37.6 °F /  3.1 °C 31.7 °F /  -0.2 °C 30.42 in /  1030 hPa North 4.0 mph /  6.4 km/h 8.0 mph /  12.9 km/h 79 % 0.00 in /  0 mm 0 W/m2
04:08 37.4 °F /  3 °C 31.5 °F /  -0.3 °C 30.42 in /  1030 hPa North 4.0 mph /  6.4 km/h 9.0 mph /  14.5 km/h 79 % 0.00 in /  0 mm 0 W/m2
04:13 37.4 °F /  3 °C 31.5 °F /  -0.3 °C 30.42 in /  1030 hPa North 4.0 mph /  6.4 km/h 9.0 mph /  14.5 km/h 79 % 0.00 in /  0 mm 0 W/m2
04:18 37.2 °F /  2.9 °C 31.3 °F /  -0.4 °C 30.42 in /  1030 hPa NNW 2.0 mph /  3.2 km/h 7.0 mph /  11.3 km/h 79 % 0.00 in /  0 mm 0 W/m2
04:23 37.2 °F /  2.9 °C 31.3 °F /  -0.4 °C 30.42 in /  1030 hPa NNW 3.0 mph /  4.8 km/h 9.0 mph /  14.5 km/h 79 % 0.00 in /  0 mm 0 W/m2
04:29 37.0 °F /  2.8 °C 31.1 °F /  -0.5 °C 30.42 in /  1030 hPa NNW 4.0 mph /  6.4 km/h 9.0 mph /  14.5 km/h 79 % 0.00 in /  0 mm 0 W/m2
04:34 37.0 °F /  2.8 °C 31.1 °F /  -0.5 °C 30.42 in /  1030 hPa NNW 3.0 mph /  4.8 km/h 8.0 mph /  12.9 km/h 79 % 0.00 in /  0 mm 0 W/m2
04:39 36.9 °F /  2.7 °C 31.0 °F /  -0.6 °C 30.42 in /  1030 hPa NNW 2.0 mph /  3.2 km/h 7.0 mph /  11.3 km/h 79 % 0.00 in /  0 mm 0 W/m2
04:44 36.7 °F /  2.6 °C 31.1 °F /  -0.5 °C 30.42 in /  1030 hPa NW 1.0 mph /  1.6 km/h 6.0 mph /  9.7 km/h 80 % 0.00 in /  0 mm 0 W/m2
04:49 36.3 °F /  2.4 °C 30.7 °F /  -0.7 °C 30.43 in /  1030.4 hPa NW 1.0 mph /  1.6 km/h 6.0 mph /  9.7 km/h 80 % 0.00 in /  0 mm 0 W/m2
04:54 36.1 °F /  2.3 °C 30.6 °F /  -0.8 °C 30.43 in /  1030.4 hPa NNW 2.0 mph /  3.2 km/h 6.0 mph /  9.7 km/h 80 % 0.00 in /  0 mm 0 W/m2
04:59 36.0 °F /  2.2 °C 30.7 °F /  -0.7 °C 30.43 in /  1030.4 hPa NNW 2.0 mph /  3.2 km/h 6.0 mph /  9.7 km/h 81 % 0.00 in /  0 mm 0 W/m2
05:04 35.8 °F /  2.1 °C 30.5 °F /  -0.8 °C 30.43 in /  1030.4 hPa NW 1.0 mph /  1.6 km/h 5.0 mph /  8 km/h 81 % 0.00 in /  0 mm 0 W/m2
05:09 35.4 °F /  1.9 °C 30.2 °F /  -1 °C 30.43 in /  1030.4 hPa NW 1.0 mph /  1.6 km/h 5.0 mph /  8 km/h 81 % 0.00 in /  0 mm 0 W/m2
05:14 35.2 °F /  1.8 °C 30.3 °F /  -0.9 °C 30.43 in /  1030.4 hPa NW 1.0 mph /  1.6 km/h 5.0 mph /  8 km/h 82 % 0.00 in /  0 mm 0 W/m2
05:19 35.2 °F /  1.8 °C 30.3 °F /  -0.9 °C 30.43 in /  1030.4 hPa NW 1.0 mph /  1.6 km/h 4.0 mph /  6.4 km/h 82 % 0.00 in /  0 mm 0 W/m2
05:24 35.1 °F /  1.7 °C 30.1 °F /  -1.1 °C 30.44 in /  1030.7 hPa NW 1.0 mph /  1.6 km/h 4.0 mph /  6.4 km/h 82 % 0.00 in /  0 mm 0 W/m2
05:29 34.9 °F /  1.6 °C 30.2 °F /  -1 °C 30.44 in /  1030.7 hPa NW 1.0 mph /  1.6 km/h 4.0 mph /  6.4 km/h 83 % 0.00 in /  0 mm 0 W/m2
05:34 34.5 °F /  1.4 °C 29.9 °F /  -1.2 °C 30.44 in /  1030.7 hPa Calm   2.0 mph /  3.2 km/h 83 % 0.00 in /  0 mm 0 W/m2
05:39 34.3 °F /  1.3 °C 29.7 °F /  -1.3 °C 30.44 in /  1030.7 hPa Calm   1.0 mph /  1.6 km/h 83 % 0.00 in /  0 mm 0 W/m2
05:44 34.2 °F /  1.2 °C 29.8 °F /  -1.2 °C 30.44 in /  1030.7 hPa Calm   2.0 mph /  3.2 km/h 84 % 0.00 in /  0 mm 0 W/m2
05:49 34.0 °F /  1.1 °C 29.7 °F /  -1.3 °C 30.45 in /  1031 hPa Calm   2.0 mph /  3.2 km/h 84 % 0.00 in /  0 mm 0 W/m2
05:54 33.6 °F /  0.9 °C 29.6 °F /  -1.3 °C 30.45 in /  1031 hPa NW 1.0 mph /  1.6 km/h 5.0 mph /  8 km/h 85 % 0.00 in /  0 mm 5 W/m2
05:59 33.6 °F /  0.9 °C 29.6 °F /  -1.3 °C 30.45 in /  1031 hPa WNW 2.0 mph /  3.2 km/h 6.0 mph /  9.7 km/h 85 % 0.00 in /  0 mm 7 W/m2
06:04 33.4 °F /  0.8 °C 29.7 °F /  -1.3 °C 30.45 in /  1031 hPa WNW 2.0 mph /  3.2 km/h 6.0 mph /  9.7 km/h 86 % 0.00 in /  0 mm 9 W/m2
06:09 33.4 °F /  0.8 °C 29.7 °F /  -1.3 °C 30.45 in /  1031 hPa WNW 2.0 mph /  3.2 km/h 5.0 mph /  8 km/h 86 % 0.00 in /  0 mm 12 W/m2
06:14 33.4 °F /  0.8 °C 29.7 °F /  -1.3 °C 30.45 in /  1031 hPa WNW 1.0 mph /  1.6 km/h 4.0 mph /  6.4 km/h 86 % 0.00 in /  0 mm 18 W/m2
06:19 33.3 °F /  0.7 °C 29.5 °F /  -1.4 °C 30.46 in /  1031.4 hPa Calm   2.0 mph /  3.2 km/h 86 % 0.00 in /  0 mm 21 W/m2
06:24 33.1 °F /  0.6 °C 29.3 °F /  -1.5 °C 30.46 in /  1031.4 hPa Calm   2.0 mph /  3.2 km/h 86 % 0.00 in /  0 mm 25 W/m2
06:29 33.1 °F /  0.6 °C 29.3 °F /  -1.5 °C 30.45 in /  1031 hPa Calm   3.0 mph /  4.8 km/h 86 % 0.00 in /  0 mm 26 W/m2
06:34 33.1 °F /  0.6 °C 29.6 °F /  -1.3 °C 30.46 in /  1031.4 hPa Calm   3.0 mph /  4.8 km/h 87 % 0.00 in /  0 mm 30 W/m2
06:39 33.1 °F /  0.6 °C 29.6 °F /  -1.3 °C 30.46 in /  1031.4 hPa Calm   1.0 mph /  1.6 km/h 87 % 0.00 in /  0 mm 32 W/m2
06:44 33.1 °F /  0.6 °C 29.6 °F /  -1.3 °C 30.46 in /  1031.4 hPa Calm   1.0 mph /  1.6 km/h 87 % 0.00 in /  0 mm 33 W/m2
06:49 33.3 °F /  0.7 °C 30.1 °F /  -1.1 °C 30.46 in /  1031.4 hPa Calm   2.0 mph /  3.2 km/h 88 % 0.00 in /  0 mm 35 W/m2
06:50 33.3 °F /  0.7 °C 30.1 °F /  -1.1 °C 30.46 in /  1031.4 hPa Calm   2.0 mph /  3.2 km/h 88 % 0.00 in /  0 mm 35 W/m2
06:55 33.4 °F /  0.8 °C 30.3 °F /  -0.9 °C 30.46 in /  1031.4 hPa Calm   2.0 mph /  3.2 km/h 88 % 0.00 in /  0 mm 44 W/m2
07:00 33.4 °F /  0.8 °C 30.3 °F /  -0.9 °C 30.47 in /  1031.7 hPa Calm   2.0 mph /  3.2 km/h 88 % 0.00 in /  0 mm 53 W/m2
07:05 33.6 °F /  0.9 °C 30.4 °F /  -0.9 °C 30.47 in /  1031.7 hPa Calm   2.0 mph /  3.2 km/h 88 % 0.00 in /  0 mm 83 W/m2
07:10 34.2 °F /  1.2 °C 31.0 °F /  -0.6 °C 30.47 in /  1031.7 hPa Calm   2.0 mph /  3.2 km/h 88 % 0.00 in /  0 mm 137 W/m2
07:15 34.7 °F /  1.5 °C 31.5 °F /  -0.3 °C 30.47 in /  1031.7 hPa Calm   2.0 mph /  3.2 km/h 88 % 0.00 in /  0 mm 156 W/m2
07:16 34.9 °F /  1.6 °C 31.7 °F /  -0.2 °C 30.47 in /  1031.7 hPa Calm   2.0 mph /  3.2 km/h 88 % 0.00 in /  0 mm 156 W/m2
07:21 35.6 °F /  2 °C 32.4 °F /  0.2 °C 30.47 in /  1031.7 hPa Calm   2.0 mph /  3.2 km/h 88 % 0.00 in /  0 mm 172 W/m2
07:26 36.3 °F /  2.4 °C 32.5 °F /  0.3 °C 30.47 in /  1031.7 hPa Calm   2.0 mph /  3.2 km/h 86 % 0.00 in /  0 mm 178 W/m2
07:31 36.9 °F /  2.7 °C 32.5 °F /  0.3 °C 30.47 in /  1031.7 hPa WNW 1.0 mph /  1.6 km/h 4.0 mph /  6.4 km/h 84 % 0.00 in /  0 mm 155 W/m2
07:36 37.0 °F /  2.8 °C 32.4 °F /  0.2 °C 30.47 in /  1031.7 hPa WNW 1.0 mph /  1.6 km/h 4.0 mph /  6.4 km/h 83 % 0.00 in /  0 mm 207 W/m2
07:41 37.8 °F /  3.2 °C 32.8 °F /  0.4 °C 30.47 in /  1031.7 hPa NW 1.0 mph /  1.6 km/h 6.0 mph /  9.7 km/h 82 % 0.00 in /  0 mm 223 W/m2
07:46 38.7 °F /  3.7 °C 33.0 °F /  0.6 °C 30.48 in /  1032.1 hPa NNW 1.0 mph /  1.6 km/h 6.0 mph /  9.7 km/h 80 % 0.00 in /  0 mm 232 W/m2
07:51 39.4 °F /  4.1 °C 33.1 °F /  0.6 °C 30.48 in /  1032.1 hPa NW 1.0 mph /  1.6 km/h 6.0 mph /  9.7 km/h 78 % 0.00 in /  0 mm 237 W/m2
07:56 40.3 °F /  4.6 °C 33.3 °F /  0.7 °C 30.48 in /  1032.1 hPa NNW 2.0 mph /  3.2 km/h 7.0 mph /  11.3 km/h 76 % 0.00 in /  0 mm 250 W/m2
08:01 41.0 °F /  5 °C 33.3 °F /  0.7 °C 30.48 in /  1032.1 hPa NNW 3.0 mph /  4.8 km/h 8.0 mph /  12.9 km/h 74 % 0.00 in /  0 mm 269 W/m2
08:06 41.5 °F /  5.3 °C 33.5 °F /  0.8 °C 30.48 in /  1032.1 hPa NNW 3.0 mph /  4.8 km/h 8.0 mph /  12.9 km/h 73 % 0.00 in /  0 mm 285 W/m2
08:11 41.9 °F /  5.5 °C 33.2 °F /  0.7 °C 30.49 in /  1032.4 hPa NNW 4.0 mph /  6.4 km/h 10.0 mph /  16.1 km/h 71 % 0.00 in /  0 mm 295 W/m2
08:16 42.1 °F /  5.6 °C 33.0 °F /  0.6 °C 30.49 in /  1032.4 hPa NNW 5.0 mph /  8 km/h 10.0 mph /  16.1 km/h 70 % 0.00 in /  0 mm 306 W/m2
08:21 42.4 °F /  5.8 °C 33.3 °F /  0.7 °C 30.49 in /  1032.4 hPa NNW 4.0 mph /  6.4 km/h 10.0 mph /  16.1 km/h 70 % 0.00 in /  0 mm 323 W/m2
08:26 43.0 °F /  6.1 °C 33.5 °F /  0.8 °C 30.49 in /  1032.4 hPa NNW 4.0 mph /  6.4 km/h 9.0 mph /  14.5 km/h 69 % 0.00 in /  0 mm 341 W/m2
08:31 43.5 °F /  6.4 °C 33.7 °F /  0.9 °C 30.49 in /  1032.4 hPa NNW 4.0 mph /  6.4 km/h 10.0 mph /  16.1 km/h 68 % 0.00 in /  0 mm 353 W/m2
08:36 43.9 °F /  6.6 °C 33.6 °F /  0.9 °C 30.49 in /  1032.4 hPa NNW 4.0 mph /  6.4 km/h 10.0 mph /  16.1 km/h 67 % 0.00 in /  0 mm 366 W/m2
08:41 44.1 °F /  6.7 °C 33.8 °F /  1 °C 30.50 in /  1032.7 hPa NNW 4.0 mph /  6.4 km/h 10.0 mph /  16.1 km/h 67 % 0.00 in /  0 mm 380 W/m2
08:46 44.2 °F /  6.8 °C 33.6 °F /  0.9 °C 30.50 in /  1032.7 hPa NNW 4.0 mph /  6.4 km/h 9.0 mph /  14.5 km/h 66 % 0.00 in /  0 mm 396 W/m2
08:51 44.6 °F /  7 °C 33.6 °F /  0.9 °C 30.50 in /  1032.7 hPa NNW 5.0 mph /  8 km/h 10.0 mph /  16.1 km/h 65 % 0.00 in /  0 mm 468 W/m2
08:56 45.0 °F /  7.2 °C 33.9 °F /  1.1 °C 30.50 in /  1032.7 hPa NNW 4.0 mph /  6.4 km/h 10.0 mph /  16.1 km/h 65 % 0.00 in /  0 mm 432 W/m2
09:01 45.3 °F /  7.4 °C 34.2 °F /  1.2 °C 30.50 in /  1032.7 hPa North 4.0 mph /  6.4 km/h 9.0 mph /  14.5 km/h 65 % 0.00 in /  0 mm 446 W/m2
09:06 45.5 °F /  7.5 °C 33.6 °F /  0.9 °C 30.50 in /  1032.7 hPa North 6.0 mph /  9.7 km/h 12.0 mph /  19.3 km/h 63 % 0.00 in /  0 mm 461 W/m2
09:11 45.5 °F /  7.5 °C 34.0 °F /  1.1 °C 30.50 in /  1032.7 hPa North 6.0 mph /  9.7 km/h 12.0 mph /  19.3 km/h 64 % 0.00 in /  0 mm 469 W/m2
09:16 45.7 °F /  7.6 °C 33.8 °F /  1 °C 30.50 in /  1032.7 hPa North 6.0 mph /  9.7 km/h 12.0 mph /  19.3 km/h 63 % 0.00 in /  0 mm 480 W/m2
09:21 45.9 °F /  7.7 °C 34.0 °F /  1.1 °C 30.50 in /  1032.7 hPa North 6.0 mph /  9.7 km/h 12.0 mph /  19.3 km/h 63 % 0.00 in /  0 mm 501 W/m2
09:27 45.9 °F /  7.7 °C 34.0 °F /  1.1 °C 30.50 in /  1032.7 hPa NNE 5.0 mph /  8 km/h 11.0 mph /  17.7 km/h 63 % 0.00 in /  0 mm 515 W/m2
09:32 45.9 °F /  7.7 °C 33.6 °F /  0.9 °C 30.50 in /  1032.7 hPa NE 4.0 mph /  6.4 km/h 11.0 mph /  17.7 km/h 62 % 0.00 in /  0 mm 522 W/m2
09:37 45.9 °F /  7.7 °C 33.2 °F /  0.7 °C 30.50 in /  1032.7 hPa NE 3.0 mph /  4.8 km/h 8.0 mph /  12.9 km/h 61 % 0.00 in /  0 mm 533 W/m2
09:42 46.0 °F /  7.8 °C 33.3 °F /  0.7 °C 30.50 in /  1032.7 hPa NE 4.0 mph /  6.4 km/h 11.0 mph /  17.7 km/h 61 % 0.00 in /  0 mm 550 W/m2
09:47 46.0 °F /  7.8 °C 32.9 °F /  0.5 °C 30.50 in /  1032.7 hPa NNE 5.0 mph /  8 km/h 11.0 mph /  17.7 km/h 60 % 0.00 in /  0 mm 564 W/m2
09:52 46.6 °F /  8.1 °C 33.0 °F /  0.6 °C 30.50 in /  1032.7 hPa North 2.0 mph /  3.2 km/h 8.0 mph /  12.9 km/h 59 % 0.00 in /  0 mm 575 W/m2
09:57 47.1 °F /  8.4 °C 33.9 °F /  1.1 °C 30.51 in /  1033.1 hPa North 2.0 mph /  3.2 km/h 9.0 mph /  14.5 km/h 60 % 0.00 in /  0 mm 596 W/m2
10:02 47.5 °F /  8.6 °C 33.4 °F /  0.8 °C 30.51 in /  1033.1 hPa NE 5.0 mph /  8 km/h 11.0 mph /  17.7 km/h 58 % 0.00 in /  0 mm 603 W/m2
10:07 47.3 °F /  8.5 °C 33.3 °F /  0.7 °C 30.51 in /  1033.1 hPa NE 6.0 mph /  9.7 km/h 12.0 mph /  19.3 km/h 58 % 0.00 in /  0 mm 622 W/m2
10:12 47.5 °F /  8.6 °C 33.9 °F /  1.1 °C 30.51 in /  1033.1 hPa NE 3.0 mph /  4.8 km/h 12.0 mph /  19.3 km/h 59 % 0.00 in /  0 mm 628 W/m2
10:17 47.8 °F /  8.8 °C 33.8 °F /  1 °C 30.51 in /  1033.1 hPa NNE 2.0 mph /  3.2 km/h 9.0 mph /  14.5 km/h 58 % 0.00 in /  0 mm 636 W/m2
10:22 48.0 °F /  8.9 °C 33.9 °F /  1.1 °C 30.51 in /  1033.1 hPa NNE 3.0 mph /  4.8 km/h 11.0 mph /  17.7 km/h 58 % 0.00 in /  0 mm 666 W/m2
10:27 48.2 °F /  9 °C 33.2 °F /  0.7 °C 30.51 in /  1033.1 hPa North 5.0 mph /  8 km/h 11.0 mph /  17.7 km/h 56 % 0.00 in /  0 mm 654 W/m2
10:32 47.8 °F /  8.8 °C 32.9 °F /  0.5 °C 30.51 in /  1033.1 hPa NE 7.0 mph /  11.3 km/h 11.0 mph /  17.7 km/h 56 % 0.00 in /  0 mm 700 W/m2
10:37 47.8 °F /  8.8 °C 32.9 °F /  0.5 °C 30.51 in /  1033.1 hPa ENE 6.0 mph /  9.7 km/h 11.0 mph /  17.7 km/h 56 % 0.00 in /  0 mm 751 W/m2
10:42 47.7 °F /  8.7 °C 34.0 °F /  1.1 °C 30.51 in /  1033.1 hPa NE 6.0 mph /  9.7 km/h 12.0 mph /  19.3 km/h 59 % 0.00 in /  0 mm 752 W/m2
10:47 47.7 °F /  8.7 °C 33.2 °F /  0.7 °C 30.51 in /  1033.1 hPa NE 6.0 mph /  9.7 km/h 13.0 mph /  20.9 km/h 57 % 0.00 in /  0 mm 775 W/m2
10:52 47.8 °F /  8.8 °C 34.6 °F /  1.4 °C 30.51 in /  1033.1 hPa ENE 5.0 mph /  8 km/h 13.0 mph /  20.9 km/h 60 % 0.00 in /  0 mm 796 W/m2
10:57 48.2 °F /  9 °C 33.7 °F /  0.9 °C 30.51 in /  1033.1 hPa ENE 5.0 mph /  8 km/h 13.0 mph /  20.9 km/h 57 % 0.00 in /  0 mm 770 W/m2
11:02 48.2 °F /  9 °C 34.1 °F /  1.2 °C 30.51 in /  1033.1 hPa NE 6.0 mph /  9.7 km/h 13.0 mph /  20.9 km/h 58 % 0.00 in /  0 mm 169 W/m2
11:07 47.8 °F /  8.8 °C 33.8 °F /  1 °C 30.51 in /  1033.1 hPa NE 5.0 mph /  8 km/h 13.0 mph /  20.9 km/h 58 % 0.00 in /  0 mm 202 W/m2
11:12 47.3 °F /  8.5 °C 33.7 °F /  0.9 °C 30.51 in /  1033.1 hPa NE 5.0 mph /  8 km/h 13.0 mph /  20.9 km/h 59 % 0.00 in /  0 mm 192 W/m2
11:17 46.9 °F /  8.3 °C 33.8 °F /  1 °C 30.51 in /  1033.1 hPa NE 6.0 mph /  9.7 km/h 13.0 mph /  20.9 km/h 60 % 0.00 in /  0 mm 229 W/m2
11:22 46.8 °F /  8.2 °C 34.0 °F /  1.1 °C 30.52 in /  1033.4 hPa NE 6.0 mph /  9.7 km/h 13.0 mph /  20.9 km/h 61 % 0.00 in /  0 mm 860 W/m2
11:27 47.3 °F /  8.5 °C 34.5 °F /  1.4 °C 30.52 in /  1033.4 hPa NE 7.0 mph /  11.3 km/h 13.0 mph /  20.9 km/h 61 % 0.00 in /  0 mm 821 W/m2
11:32 47.7 °F /  8.7 °C 34.4 °F /  1.3 °C 30.51 in /  1033.1 hPa ENE 6.0 mph /  9.7 km/h 12.0 mph /  19.3 km/h 60 % 0.00 in /  0 mm 884 W/m2
11:37 48.6 °F /  9.2 °C 34.9 °F /  1.6 °C 30.51 in /  1033.1 hPa East 6.0 mph /  9.7 km/h 11.0 mph /  17.7 km/h 59 % 0.00 in /  0 mm 881 W/m2
11:42 49.5 °F /  9.7 °C 35.3 °F /  1.8 °C 30.51 in /  1033.1 hPa ENE 5.0 mph /  8 km/h 10.0 mph /  16.1 km/h 58 % 0.00 in /  0 mm 856 W/m2
11:47 49.6 °F /  9.8 °C 35.0 °F /  1.7 °C 30.51 in /  1033.1 hPa ENE 4.0 mph /  6.4 km/h 10.0 mph /  16.1 km/h 57 % 0.00 in /  0 mm 856 W/m2
11:52 49.5 °F /  9.7 °C 34.4 °F /  1.3 °C 30.51 in /  1033.1 hPa ENE 6.0 mph /  9.7 km/h 14.0 mph /  22.5 km/h 56 % 0.00 in /  0 mm 847 W/m2
11:57 49.6 °F /  9.8 °C 34.6 °F /  1.4 °C 30.51 in /  1033.1 hPa NE 7.0 mph /  11.3 km/h 14.0 mph /  22.5 km/h 56 % 0.00 in /  0 mm 197 W/m2
12:02 49.3 °F /  9.6 °C 34.7 °F /  1.5 °C 30.51 in /  1033.1 hPa NE 7.0 mph /  11.3 km/h 14.0 mph /  22.5 km/h 57 % 0.00 in /  0 mm 803 W/m2
12:07 49.6 °F /  9.8 °C 35.0 °F /  1.7 °C 30.51 in /  1033.1 hPa ENE 6.0 mph /  9.7 km/h 14.0 mph /  22.5 km/h 57 % 0.00 in /  0 mm 838 W/m2
12:12 49.8 °F /  9.9 °C 35.2 °F /  1.8 °C 30.51 in /  1033.1 hPa ENE 5.0 mph /  8 km/h 11.0 mph /  17.7 km/h 57 % 0.00 in /  0 mm 809 W/m2
12:18 50.2 °F /  10.1 °C 36.0 °F /  2.2 °C 30.51 in /  1033.1 hPa ENE 6.0 mph /  9.7 km/h 13.0 mph /  20.9 km/h 58 % 0.00 in /  0 mm 564 W/m2
12:23 50.2 °F /  10.1 °C 36.0 °F /  2.2 °C 30.51 in /  1033.1 hPa ENE 7.0 mph /  11.3 km/h 13.0 mph /  20.9 km/h 58 % 0.00 in /  0 mm 339 W/m2
12:28 50.2 °F /  10.1 °C 36.0 °F /  2.2 °C 30.51 in /  1033.1 hPa ENE 6.0 mph /  9.7 km/h 12.0 mph /  19.3 km/h 58 % 0.00 in /  0 mm 800 W/m2
12:33 50.5 °F /  10.3 °C 35.4 °F /  1.9 °C 30.51 in /  1033.1 hPa NE 6.0 mph /  9.7 km/h 11.0 mph /  17.7 km/h 56 % 0.00 in /  0 mm 851 W/m2
12:38 50.7 °F /  10.4 °C 35.6 °F /  2 °C 30.51 in /  1033.1 hPa NE 5.0 mph /  8 km/h 11.0 mph /  17.7 km/h 56 % 0.00 in /  0 mm 805 W/m2
12:43 51.1 °F /  10.6 °C 35.0 °F /  1.7 °C 30.51 in /  1033.1 hPa NNE 5.0 mph /  8 km/h 12.0 mph /  19.3 km/h 54 % 0.00 in /  0 mm 406 W/m2
12:48 51.1 °F /  10.6 °C 34.1 °F /  1.2 °C 30.51 in /  1033.1 hPa ENE 5.0 mph /  8 km/h 12.0 mph /  19.3 km/h 52 % 0.00 in /  0 mm 838 W/m2
12:53 51.6 °F /  10.9 °C 34.6 °F /  1.4 °C 30.51 in /  1033.1 hPa East 5.0 mph /  8 km/h 11.0 mph /  17.7 km/h 52 % 0.00 in /  0 mm 385 W/m2
12:58 51.3 °F /  10.7 °C 34.2 °F /  1.2 °C 30.51 in /  1033.1 hPa ENE 6.0 mph /  9.7 km/h 11.0 mph /  17.7 km/h 52 % 0.00 in /  0 mm 352 W/m2
13:03 51.1 °F /  10.6 °C 35.5 °F /  1.9 °C 30.51 in /  1033.1 hPa NE 6.0 mph /  9.7 km/h 14.0 mph /  22.5 km/h 55 % 0.00 in /  0 mm 322 W/m2
13:08 50.4 °F /  10.2 °C 34.3 °F /  1.3 °C 30.51 in /  1033.1 hPa NE 7.0 mph /  11.3 km/h 14.0 mph /  22.5 km/h 54 % 0.00 in /  0 mm 352 W/m2
13:13 50.2 °F /  10.1 °C 34.6 °F /  1.4 °C 30.51 in /  1033.1 hPa NE 6.0 mph /  9.7 km/h 12.0 mph /  19.3 km/h 55 % 0.00 in /  0 mm 844 W/m2
13:18 50.7 °F /  10.4 °C 35.6 °F /  2 °C 30.51 in /  1033.1 hPa NE 4.0 mph /  6.4 km/h 12.0 mph /  19.3 km/h 56 % 0.00 in /  0 mm 940 W/m2
13:23 51.4 °F /  10.8 °C 34.9 °F /  1.6 °C 30.51 in /  1033.1 hPa ENE 4.0 mph /  6.4 km/h 10.0 mph /  16.1 km/h 53 % 0.00 in /  0 mm 951 W/m2
13:28 51.4 °F /  10.8 °C 34.9 °F /  1.6 °C 30.51 in /  1033.1 hPa NE 4.0 mph /  6.4 km/h 9.0 mph /  14.5 km/h 53 % 0.00 in /  0 mm 297 W/m2
13:33 51.3 °F /  10.7 °C 34.7 °F /  1.5 °C 30.51 in /  1033.1 hPa NNE 5.0 mph /  8 km/h 13.0 mph /  20.9 km/h 53 % 0.00 in /  0 mm 311 W/m2
13:38 50.7 °F /  10.4 °C 34.2 °F /  1.2 °C 30.51 in /  1033.1 hPa NE 7.0 mph /  11.3 km/h 13.0 mph /  20.9 km/h 53 % 0.00 in /  0 mm 267 W/m2
13:43 50.5 °F /  10.3 °C 34.5 °F /  1.4 °C 30.51 in /  1033.1 hPa ENE 5.0 mph /  8 km/h 12.0 mph /  19.3 km/h 54 % 0.00 in /  0 mm 821 W/m2
13:48 50.7 °F /  10.4 °C 33.7 °F /  0.9 °C 30.51 in /  1033.1 hPa East 5.0 mph /  8 km/h 11.0 mph /  17.7 km/h 52 % 0.00 in /  0 mm 816 W/m2
13:53 51.1 °F /  10.6 °C 34.1 °F /  1.2 °C 30.51 in /  1033.1 hPa ENE 6.0 mph /  9.7 km/h 13.0 mph /  20.9 km/h 52 % 0.00 in /  0 mm 874 W/m2
13:58 51.6 °F /  10.9 °C 34.6 °F /  1.4 °C 30.51 in /  1033.1 hPa ENE 6.0 mph /  9.7 km/h 13.0 mph /  20.9 km/h 52 % 0.00 in /  0 mm 881 W/m2
14:03 52.0 °F /  11.1 °C 34.4 °F /  1.3 °C 30.51 in /  1033.1 hPa NE 4.0 mph /  6.4 km/h 10.0 mph /  16.1 km/h 51 % 0.00 in /  0 mm 947 W/m2
14:08 52.9 °F /  11.6 °C 35.2 °F /  1.8 °C 30.51 in /  1033.1 hPa NE 3.0 mph /  4.8 km/h 11.0 mph /  17.7 km/h 51 % 0.00 in /  0 mm 188 W/m2
14:13 52.2 °F /  11.2 °C 33.6 °F /  0.9 °C 30.51 in /  1033.1 hPa NE 6.0 mph /  9.7 km/h 11.0 mph /  17.7 km/h 49 % 0.00 in /  0 mm 200 W/m2
14:18 51.6 °F /  10.9 °C 34.1 °F /  1.2 °C 30.51 in /  1033.1 hPa NE 5.0 mph /  8 km/h 11.0 mph /  17.7 km/h 51 % 0.00 in /  0 mm 863 W/m2
14:23 51.6 °F /  10.9 °C 33.1 °F /  0.6 °C 30.51 in /  1033.1 hPa ENE 4.0 mph /  6.4 km/h 9.0 mph /  14.5 km/h 49 % 0.00 in /  0 mm 190 W/m2
14:28 51.8 °F /  11 °C 33.2 °F /  0.7 °C 30.51 in /  1033.1 hPa East 4.0 mph /  6.4 km/h 9.0 mph /  14.5 km/h 49 % 0.00 in /  0 mm 802 W/m2
14:33 52.2 °F /  11.2 °C 33.0 °F /  0.6 °C 30.51 in /  1033.1 hPa East 4.0 mph /  6.4 km/h 8.0 mph /  12.9 km/h 48 % 0.00 in /  0 mm 814 W/m2
14:38 52.3 °F /  11.3 °C 33.7 °F /  0.9 °C 30.51 in /  1033.1 hPa East 3.0 mph /  4.8 km/h 8.0 mph /  12.9 km/h 49 % 0.00 in /  0 mm 853 W/m2
14:43 52.9 °F /  11.6 °C 34.7 °F /  1.5 °C 30.51 in /  1033.1 hPa East 3.0 mph /  4.8 km/h 8.0 mph /  12.9 km/h 50 % 0.00 in /  0 mm 923 W/m2
14:48 53.2 °F /  11.8 °C 34.6 °F /  1.4 °C 30.51 in /  1033.1 hPa East 3.0 mph /  4.8 km/h 14.0 mph /  22.5 km/h 49 % 0.00 in /  0 mm 896 W/m2
14:53 53.6 °F /  12 °C 34.4 °F /  1.3 °C 30.51 in /  1033.1 hPa ENE 5.0 mph /  8 km/h 14.0 mph /  22.5 km/h 48 % 0.00 in /  0 mm 865 W/m2
14:58 53.2 °F /  11.8 °C 34.0 °F /  1.1 °C 30.51 in /  1033.1 hPa NE 5.0 mph /  8 km/h 10.0 mph /  16.1 km/h 48 % 0.00 in /  0 mm 260 W/m2
15:03 52.9 °F /  11.6 °C 33.2 °F /  0.7 °C 30.51 in /  1033.1 hPa ENE 5.0 mph /  8 km/h 10.0 mph /  16.1 km/h 47 % 0.00 in /  0 mm 828 W/m2
15:08 52.2 °F /  11.2 °C 32.5 °F /  0.3 °C 30.51 in /  1033.1 hPa ENE 7.0 mph /  11.3 km/h 12.0 mph /  19.3 km/h 47 % 0.00 in /  0 mm 232 W/m2
15:10 51.8 °F /  11 °C 32.7 °F /  0.4 °C 30.51 in /  1033.1 hPa ENE 7.0 mph /  11.3 km/h 12.0 mph /  19.3 km/h 48 % 0.00 in /  0 mm 197 W/m2
15:15 51.3 °F /  10.7 °C 33.2 °F /  0.7 °C 30.51 in /  1033.1 hPa ENE 5.0 mph /  8 km/h 11.0 mph /  17.7 km/h 50 % 0.00 in /  0 mm 408 W/m2
15:20 51.4 °F /  10.8 °C 32.4 °F /  0.2 °C 30.51 in /  1033.1 hPa ENE 3.0 mph /  4.8 km/h 9.0 mph /  14.5 km/h 48 % 0.00 in /  0 mm 752 W/m2
15:25 51.6 °F /  10.9 °C 32.0 °F /  0 °C 30.51 in /  1033.1 hPa ENE 4.0 mph /  6.4 km/h 11.0 mph /  17.7 km/h 47 % 0.00 in /  0 mm 696 W/m2
15:30 52.0 °F /  11.1 °C 31.8 °F /  -0.1 °C 30.51 in /  1033.1 hPa ENE 3.0 mph /  4.8 km/h 11.0 mph /  17.7 km/h 46 % 0.00 in /  0 mm 640 W/m2
15:35 52.3 °F /  11.3 °C 31.0 °F /  -0.6 °C 30.51 in /  1033.1 hPa SE 2.0 mph /  3.2 km/h 6.0 mph /  9.7 km/h 44 % 0.00 in /  0 mm 489 W/m2
15:40 52.9 °F /  11.6 °C 31.5 °F /  -0.3 °C 30.51 in /  1033.1 hPa South 1.0 mph /  1.6 km/h 6.0 mph /  9.7 km/h 44 % 0.00 in /  0 mm 519 W/m2
15:45 53.2 °F /  11.8 °C 31.9 °F /  -0.1 °C 30.51 in /  1033.1 hPa ENE 1.0 mph /  1.6 km/h 11.0 mph /  17.7 km/h 44 % 0.00 in /  0 mm 408 W/m2
15:50 53.1 °F /  11.7 °C 33.3 °F /  0.7 °C 30.51 in /  1033.1 hPa NE 4.0 mph /  6.4 km/h 12.0 mph /  19.3 km/h 47 % 0.00 in /  0 mm 318 W/m2
15:55 52.5 °F /  11.4 °C 32.9 °F /  0.5 °C 30.51 in /  1033.1 hPa ENE 6.0 mph /  9.7 km/h 12.0 mph /  19.3 km/h 47 % 0.00 in /  0 mm 330 W/m2
16:00 52.3 °F /  11.3 °C 32.2 °F /  0.1 °C 30.51 in /  1033.1 hPa East 5.0 mph /  8 km/h 10.0 mph /  16.1 km/h 46 % 0.00 in /  0 mm 359 W/m2
16:05 52.3 °F /  11.3 °C 32.2 °F /  0.1 °C 30.51 in /  1033.1 hPa ESE 5.0 mph /  8 km/h 10.0 mph /  16.1 km/h 46 % 0.00 in /  0 mm 427 W/m2
16:11 52.7 °F /  11.5 °C 31.9 °F /  -0.1 °C 30.51 in /  1033.1 hPa ESE 4.0 mph /  6.4 km/h 9.0 mph /  14.5 km/h 45 % 0.00 in /  0 mm 432 W/m2
16:16 52.9 °F /  11.6 °C 30.4 °F /  -0.9 °C 30.51 in /  1033.1 hPa ESE 4.0 mph /  6.4 km/h 9.0 mph /  14.5 km/h 42 % 0.00 in /  0 mm 445 W/m2
16:21 52.9 °F /  11.6 °C 31.5 °F /  -0.3 °C 30.51 in /  1033.1 hPa East 4.0 mph /  6.4 km/h 9.0 mph /  14.5 km/h 44 % 0.00 in /  0 mm 552 W/m2
16:26 52.5 °F /  11.4 °C 31.8 °F /  -0.1 °C 30.51 in /  1033.1 hPa ENE 5.0 mph /  8 km/h 13.0 mph /  20.9 km/h 45 % 0.00 in /  0 mm 592 W/m2
16:31 52.5 °F /  11.4 °C 32.3 °F /  0.2 °C 30.51 in /  1033.1 hPa ENE 6.0 mph /  9.7 km/h 13.0 mph /  20.9 km/h 46 % 0.00 in /  0 mm 570 W/m2
16:36 52.5 °F /  11.4 °C 32.3 °F /  0.2 °C 30.51 in /  1033.1 hPa East 6.0 mph /  9.7 km/h 11.0 mph /  17.7 km/h 46 % 0.00 in /  0 mm 487 W/m2
16:41 52.5 °F /  11.4 °C 32.3 °F /  0.2 °C 30.51 in /  1033.1 hPa East 6.0 mph /  9.7 km/h 12.0 mph /  19.3 km/h 46 % 0.00 in /  0 mm 499 W/m2
16:46 52.5 °F /  11.4 °C 32.3 °F /  0.2 °C 30.51 in /  1033.1 hPa ENE 5.0 mph /  8 km/h 12.0 mph /  19.3 km/h 46 % 0.00 in /  0 mm 431 W/m2
16:51 52.7 °F /  11.5 °C 31.9 °F /  -0.1 °C 30.51 in /  1033.1 hPa East 3.0 mph /  4.8 km/h 8.0 mph /  12.9 km/h 45 % 0.00 in /  0 mm 450 W/m2
16:56 52.7 °F /  11.5 °C 31.9 °F /  -0.1 °C 30.51 in /  1033.1 hPa East 4.0 mph /  6.4 km/h 10.0 mph /  16.1 km/h 45 % 0.00 in /  0 mm 487 W/m2
17:01 52.7 °F /  11.5 °C 31.4 °F /  -0.3 °C 30.51 in /  1033.1 hPa ESE 6.0 mph /  9.7 km/h 10.0 mph /  16.1 km/h 44 % 0.00 in /  0 mm 510 W/m2
17:06 53.1 °F /  11.7 °C 31.1 °F /  -0.5 °C 30.51 in /  1033.1 hPa SE 5.0 mph /  8 km/h 11.0 mph /  17.7 km/h 43 % 0.00 in /  0 mm 417 W/m2
17:11 52.9 °F /  11.6 °C 30.4 °F /  -0.9 °C 30.51 in /  1033.1 hPa ESE 5.0 mph /  8 km/h 11.0 mph /  17.7 km/h 42 % 0.00 in /  0 mm 246 W/m2
17:16 52.3 °F /  11.3 °C 29.3 °F /  -1.5 °C 30.52 in /  1033.4 hPa East 5.0 mph /  8 km/h 9.0 mph /  14.5 km/h 41 % 0.00 in /  0 mm 244 W/m2
17:21 52.2 °F /  11.2 °C 30.3 °F /  -0.9 °C 30.52 in /  1033.4 hPa East 4.0 mph /  6.4 km/h 9.0 mph /  14.5 km/h 43 % 0.00 in /  0 mm 267 W/m2
17:26 52.2 °F /  11.2 °C 32.0 °F /  0 °C 30.52 in /  1033.4 hPa ESE 4.0 mph /  6.4 km/h 9.0 mph /  14.5 km/h 46 % 0.00 in /  0 mm 364 W/m2
17:31 52.0 °F /  11.1 °C 32.9 °F /  0.5 °C 30.52 in /  1033.4 hPa East 4.0 mph /  6.4 km/h 11.0 mph /  17.7 km/h 48 % 0.00 in /  0 mm 332 W/m2
17:36 52.0 °F /  11.1 °C 33.4 °F /  0.8 °C 30.52 in /  1033.4 hPa NE 4.0 mph /  6.4 km/h 11.0 mph /  17.7 km/h 49 % 0.00 in /  0 mm 176 W/m2
17:41 51.4 °F /  10.8 °C 31.3 °F /  -0.4 °C 30.52 in /  1033.4 hPa NE 5.0 mph /  8 km/h 9.0 mph /  14.5 km/h 46 % 0.00 in /  0 mm 178 W/m2
17:46 51.3 °F /  10.7 °C 31.2 °F /  -0.4 °C 30.52 in /  1033.4 hPa ENE 5.0 mph /  8 km/h 10.0 mph /  16.1 km/h 46 % 0.00 in /  0 mm 197 W/m2
17:51 51.1 °F /  10.6 °C 32.1 °F /  0.1 °C 30.53 in /  1033.7 hPa ENE 4.0 mph /  6.4 km/h 10.0 mph /  16.1 km/h 48 % 0.00 in /  0 mm 200 W/m2
17:56 51.1 °F /  10.6 °C 33.6 °F /  0.9 °C 30.53 in /  1033.7 hPa East 3.0 mph /  4.8 km/h 7.0 mph /  11.3 km/h 51 % 0.00 in /  0 mm 186 W/m2
18:01 51.1 °F /  10.6 °C 33.1 °F /  0.6 °C 30.53 in /  1033.7 hPa ESE 4.0 mph /  6.4 km/h 12.0 mph /  19.3 km/h 50 % 0.00 in /  0 mm 167 W/m2
18:06 51.1 °F /  10.6 °C 33.1 °F /  0.6 °C 30.53 in /  1033.7 hPa ESE 6.0 mph /  9.7 km/h 12.0 mph /  19.3 km/h 50 % 0.00 in /  0 mm 130 W/m2
18:11 50.9 °F /  10.5 °C 33.4 °F /  0.8 °C 30.53 in /  1033.7 hPa ESE 5.0 mph /  8 km/h 11.0 mph /  17.7 km/h 51 % 0.00 in /  0 mm 125 W/m2
18:12 50.7 °F /  10.4 °C 33.2 °F /  0.7 °C 30.53 in /  1033.7 hPa ESE 6.0 mph /  9.7 km/h 11.0 mph /  17.7 km/h 51 % 0.00 in /  0 mm 127 W/m2
18:17 50.7 °F /  10.4 °C 33.7 °F /  0.9 °C 30.53 in /  1033.7 hPa East 4.0 mph /  6.4 km/h 10.0 mph /  16.1 km/h 52 % 0.00 in /  0 mm 123 W/m2
18:22 50.5 °F /  10.3 °C 34.5 °F /  1.4 °C 30.53 in /  1033.7 hPa East 4.0 mph /  6.4 km/h 8.0 mph /  12.9 km/h 54 % 0.00 in /  0 mm 107 W/m2
18:27 50.4 °F /  10.2 °C 34.3 °F /  1.3 °C 30.53 in /  1033.7 hPa ENE 3.0 mph /  4.8 km/h 8.0 mph /  12.9 km/h 54 % 0.00 in /  0 mm 90 W/m2
18:28 50.4 °F /  10.2 °C 34.3 °F /  1.3 °C 30.53 in /  1033.7 hPa ENE 3.0 mph /  4.8 km/h 8.0 mph /  12.9 km/h 54 % 0.00 in /  0 mm 90 W/m2
18:32 50.4 °F /  10.2 °C 34.8 °F /  1.6 °C 30.53 in /  1033.7 hPa East 3.0 mph /  4.8 km/h 8.0 mph /  12.9 km/h 55 % 0.00 in /  0 mm 84 W/m2
18:37 50.0 °F /  10 °C 34.5 °F /  1.4 °C 30.54 in /  1034.1 hPa East 3.0 mph /  4.8 km/h 7.0 mph /  11.3 km/h 55 % 0.00 in /  0 mm 79 W/m2
18:43 49.8 °F /  9.9 °C 34.3 °F /  1.3 °C 30.54 in /  1034.1 hPa East 3.0 mph /  4.8 km/h 8.0 mph /  12.9 km/h 55 % 0.00 in /  0 mm 81 W/m2
18:48 49.6 °F /  9.8 °C 34.1 °F /  1.2 °C 30.54 in /  1034.1 hPa East 3.0 mph /  4.8 km/h 8.0 mph /  12.9 km/h 55 % 0.00 in /  0 mm 81 W/m2
18:53 49.6 °F /  9.8 °C 34.6 °F /  1.4 °C 30.54 in /  1034.1 hPa East 4.0 mph /  6.4 km/h 8.0 mph /  12.9 km/h 56 % 0.00 in /  0 mm 100 W/m2
18:58 49.5 °F /  9.7 °C 35.3 °F /  1.8 °C 30.54 in /  1034.1 hPa East 5.0 mph /  8 km/h 11.0 mph /  17.7 km/h 58 % 0.00 in /  0 mm 74 W/m2
19:03 49.3 °F /  9.6 °C 36.0 °F /  2.2 °C 30.54 in /  1034.1 hPa East 5.0 mph /  8 km/h 11.0 mph /  17.7 km/h 60 % 0.00 in /  0 mm 95 W/m2
19:08 49.1 °F /  9.5 °C 36.2 °F /  2.3 °C 30.55 in /  1034.4 hPa East 5.0 mph /  8 km/h 9.0 mph /  14.5 km/h 61 % 0.00 in /  0 mm 76 W/m2
19:13 48.9 °F /  9.4 °C 36.1 °F /  2.3 °C 30.55 in /  1034.4 hPa East 4.0 mph /  6.4 km/h 9.0 mph /  14.5 km/h 61 % 0.00 in /  0 mm 62 W/m2
19:18 48.7 °F /  9.3 °C 36.3 °F /  2.4 °C 30.54 in /  1034.1 hPa East 4.0 mph /  6.4 km/h 8.0 mph /  12.9 km/h 62 % 0.00 in /  0 mm 60 W/m2
19:23 48.6 °F /  9.2 °C 36.1 °F /  2.3 °C 30.54 in /  1034.1 hPa East 3.0 mph /  4.8 km/h 8.0 mph /  12.9 km/h 62 % 0.00 in /  0 mm 54 W/m2
19:28 48.6 °F /  9.2 °C 36.5 °F /  2.5 °C 30.54 in /  1034.1 hPa East 2.0 mph /  3.2 km/h 7.0 mph /  11.3 km/h 63 % 0.00 in /  0 mm 32 W/m2
19:33 48.4 °F /  9.1 °C 36.4 °F /  2.4 °C 30.55 in /  1034.4 hPa East 3.0 mph /  4.8 km/h 7.0 mph /  11.3 km/h 63 % 0.00 in /  0 mm 25 W/m2
19:38 48.0 °F /  8.9 °C 36.4 °F /  2.4 °C 30.55 in /  1034.4 hPa East 3.0 mph /  4.8 km/h 7.0 mph /  11.3 km/h 64 % 0.00 in /  0 mm 19 W/m2
19:43 47.8 °F /  8.8 °C 36.6 °F /  2.6 °C 30.55 in /  1034.4 hPa East 2.0 mph /  3.2 km/h 6.0 mph /  9.7 km/h 65 % 0.00 in /  0 mm 19 W/m2
19:48 47.7 °F /  8.7 °C 36.9 °F /  2.7 °C 30.55 in /  1034.4 hPa East 2.0 mph /  3.2 km/h 7.0 mph /  11.3 km/h 66 % 0.00 in /  0 mm 18 W/m2
19:53 47.5 °F /  8.6 °C 36.7 °F /  2.6 °C 30.55 in /  1034.4 hPa East 3.0 mph /  4.8 km/h 7.0 mph /  11.3 km/h 66 % 0.00 in /  0 mm 14 W/m2
19:58 47.3 °F /  8.5 °C 36.5 °F /  2.5 °C 30.55 in /  1034.4 hPa East 3.0 mph /  4.8 km/h 7.0 mph /  11.3 km/h 66 % 0.00 in /  0 mm 9 W/m2
20:03 47.1 °F /  8.4 °C 36.7 °F /  2.6 °C 30.55 in /  1034.4 hPa East 3.0 mph /  4.8 km/h 7.0 mph /  11.3 km/h 67 % 0.00 in /  0 mm 5 W/m2
20:08 46.9 °F /  8.3 °C 36.5 °F /  2.5 °C 30.55 in /  1034.4 hPa ESE 2.0 mph /  3.2 km/h 6.0 mph /  9.7 km/h 67 % 0.00 in /  0 mm 0 W/m2
20:13 46.8 °F /  8.2 °C 36.8 °F /  2.7 °C 30.55 in /  1034.4 hPa ESE 2.0 mph /  3.2 km/h 6.0 mph /  9.7 km/h 68 % 0.00 in /  0 mm 0 W/m2
20:18 46.6 °F /  8.1 °C 36.6 °F /  2.6 °C 30.55 in /  1034.4 hPa ESE 2.0 mph /  3.2 km/h 6.0 mph /  9.7 km/h 68 % 0.00 in /  0 mm 0 W/m2
20:19 46.6 °F /  8.1 °C 36.6 °F /  2.6 °C 30.55 in /  1034.4 hPa ESE 2.0 mph /  3.2 km/h 6.0 mph /  9.7 km/h 68 % 0.00 in /  0 mm 0 W/m2
20:24 46.6 °F /  8.1 °C 37.0 °F /  2.8 °C 30.55 in /  1034.4 hPa ESE 2.0 mph /  3.2 km/h 6.0 mph /  9.7 km/h 69 % 0.00 in /  0 mm 0 W/m2
20:29 46.4 °F /  8 °C 36.8 °F /  2.7 °C 30.55 in /  1034.4 hPa ESE 2.0 mph /  3.2 km/h 6.0 mph /  9.7 km/h 69 % 0.00 in /  0 mm 0 W/m2
20:34 46.4 °F /  8 °C 36.8 °F /  2.7 °C 30.55 in /  1034.4 hPa ESE 2.0 mph /  3.2 km/h 6.0 mph /  9.7 km/h 69 % 0.00 in /  0 mm 0 W/m2
20:39 46.2 °F /  7.9 °C 36.6 °F /  2.6 °C 30.55 in /  1034.4 hPa ESE 3.0 mph /  4.8 km/h 7.0 mph /  11.3 km/h 69 % 0.00 in /  0 mm 0 W/m2
20:44 46.2 °F /  7.9 °C 37.0 °F /  2.8 °C 30.55 in /  1034.4 hPa ESE 3.0 mph /  4.8 km/h 7.0 mph /  11.3 km/h 70 % 0.00 in /  0 mm 0 W/m2
20:49 46.0 °F /  7.8 °C 37.2 °F /  2.9 °C 30.56 in /  1034.8 hPa ESE 3.0 mph /  4.8 km/h 8.0 mph /  12.9 km/h 71 % 0.00 in /  0 mm 0 W/m2
20:54 46.0 °F /  7.8 °C 37.5 °F /  3.1 °C 30.56 in /  1034.8 hPa ESE 2.0 mph /  3.2 km/h 8.0 mph /  12.9 km/h 72 % 0.00 in /  0 mm 0 W/m2
20:59 46.0 °F /  7.8 °C 37.5 °F /  3.1 °C 30.56 in /  1034.8 hPa ESE 1.0 mph /  1.6 km/h 6.0 mph /  9.7 km/h 72 % 0.00 in /  0 mm 0 W/m2
21:04 46.0 °F /  7.8 °C 37.5 °F /  3.1 °C 30.56 in /  1034.8 hPa SE 2.0 mph /  3.2 km/h 7.0 mph /  11.3 km/h 72 % 0.00 in /  0 mm 0 W/m2
21:09 46.0 °F /  7.8 °C 37.9 °F /  3.3 °C 30.56 in /  1034.8 hPa SE 3.0 mph /  4.8 km/h 8.0 mph /  12.9 km/h 73 % 0.00 in /  0 mm 0 W/m2
21:14 45.9 °F /  7.7 °C 38.0 °F /  3.3 °C 30.56 in /  1034.8 hPa SE 4.0 mph /  6.4 km/h 8.0 mph /  12.9 km/h 74 % 0.00 in /  0 mm 0 W/m2
21:19 45.9 °F /  7.7 °C 38.0 °F /  3.3 °C 30.56 in /  1034.8 hPa SE 4.0 mph /  6.4 km/h 8.0 mph /  12.9 km/h 74 % 0.00 in /  0 mm 0 W/m2
21:24 45.7 °F /  7.6 °C 37.9 °F /  3.3 °C 30.57 in /  1035.1 hPa SE 4.0 mph /  6.4 km/h 8.0 mph /  12.9 km/h 74 % 0.00 in /  0 mm 0 W/m2
21:29 45.7 °F /  7.6 °C 38.2 °F /  3.4 °C 30.57 in /  1035.1 hPa SE 3.0 mph /  4.8 km/h 8.0 mph /  12.9 km/h 75 % 0.00 in /  0 mm 0 W/m2
21:34 45.7 °F /  7.6 °C 38.2 °F /  3.4 °C 30.57 in /  1035.1 hPa SE 2.0 mph /  3.2 km/h 7.0 mph /  11.3 km/h 75 % 0.00 in /  0 mm 0 W/m2
21:39 45.7 °F /  7.6 °C 38.2 °F /  3.4 °C 30.57 in /  1035.1 hPa SE 3.0 mph /  4.8 km/h 7.0 mph /  11.3 km/h 75 % 0.00 in /  0 mm 0 W/m2
21:44 45.5 °F /  7.5 °C 38.0 °F /  3.3 °C 30.57 in /  1035.1 hPa SE 4.0 mph /  6.4 km/h 10.0 mph /  16.1 km/h 75 % 0.00 in /  0 mm 0 W/m2
21:49 45.3 °F /  7.4 °C 38.2 °F /  3.4 °C 30.57 in /  1035.1 hPa ESE 4.0 mph /  6.4 km/h 10.0 mph /  16.1 km/h 76 % 0.00 in /  0 mm 0 W/m2
21:54 45.1 °F /  7.3 °C 38.0 °F /  3.3 °C 30.57 in /  1035.1 hPa ESE 4.0 mph /  6.4 km/h 8.0 mph /  12.9 km/h 76 % 0.00 in /  0 mm 0 W/m2
21:59 45.1 °F /  7.3 °C 38.0 °F /  3.3 °C 30.57 in /  1035.1 hPa ESE 4.0 mph /  6.4 km/h 8.0 mph /  12.9 km/h 76 % 0.00 in /  0 mm 0 W/m2
22:04 45.0 °F /  7.2 °C 38.2 °F /  3.4 °C 30.57 in /  1035.1 hPa SE 4.0 mph /  6.4 km/h 8.0 mph /  12.9 km/h 77 % 0.00 in /  0 mm 0 W/m2
22:09 45.0 °F /  7.2 °C 38.2 °F /  3.4 °C 30.57 in /  1035.1 hPa SE 4.0 mph /  6.4 km/h 8.0 mph /  12.9 km/h 77 % 0.00 in /  0 mm 0 W/m2
22:14 44.8 °F /  7.1 °C 38.0 °F /  3.3 °C 30.57 in /  1035.1 hPa SE 4.0 mph /  6.4 km/h 8.0 mph /  12.9 km/h 77 % 0.00 in /  0 mm 0 W/m2
22:19 44.8 °F /  7.1 °C 38.3 °F /  3.5 °C 30.58 in /  1035.4 hPa SE 3.0 mph /  4.8 km/h 7.0 mph /  11.3 km/h 78 % 0.00 in /  0 mm 0 W/m2
22:24 44.6 °F /  7 °C 38.2 °F /  3.4 °C 30.58 in /  1035.4 hPa SE 2.0 mph /  3.2 km/h 6.0 mph /  9.7 km/h 78 % 0.00 in /  0 mm 0 W/m2
22:29 44.4 °F /  6.9 °C 38.0 °F /  3.3 °C 30.58 in /  1035.4 hPa ESE 2.0 mph /  3.2 km/h 7.0 mph /  11.3 km/h 78 % 0.00 in /  0 mm 0 W/m2
22:34 44.4 °F /  6.9 °C 38.0 °F /  3.3 °C 30.58 in /  1035.4 hPa SE 2.0 mph /  3.2 km/h 7.0 mph /  11.3 km/h 78 % 0.00 in /  0 mm 0 W/m2
22:39 44.2 °F /  6.8 °C 38.1 °F /  3.4 °C 30.58 in /  1035.4 hPa SE 3.0 mph /  4.8 km/h 7.0 mph /  11.3 km/h 79 % 0.00 in /  0 mm 0 W/m2
22:44 44.2 °F /  6.8 °C 38.1 °F /  3.4 °C 30.58 in /  1035.4 hPa SE 2.0 mph /  3.2 km/h 6.0 mph /  9.7 km/h 79 % 0.00 in /  0 mm 0 W/m2
22:49 44.1 °F /  6.7 °C 38.0 °F /  3.3 °C 30.58 in /  1035.4 hPa SE 1.0 mph /  1.6 km/h 5.0 mph /  8 km/h 79 % 0.00 in /  0 mm 0 W/m2
22:54 44.1 °F /  6.7 °C 38.0 °F /  3.3 °C 30.59 in /  1035.8 hPa SE 1.0 mph /  1.6 km/h 4.0 mph /  6.4 km/h 79 % 0.00 in /  0 mm 0 W/m2
22:59 43.9 °F /  6.6 °C 38.1 °F /  3.4 °C 30.59 in /  1035.8 hPa SE 1.0 mph /  1.6 km/h 5.0 mph /  8 km/h 80 % 0.00 in /  0 mm 0 W/m2
23:04 43.9 °F /  6.6 °C 38.1 °F /  3.4 °C 30.59 in /  1035.8 hPa SE 1.0 mph /  1.6 km/h 5.0 mph /  8 km/h 80 % 0.00 in /  0 mm 0 W/m2
23:09 43.9 °F /  6.6 °C 38.1 °F /  3.4 °C 30.59 in /  1035.8 hPa SE 1.0 mph /  1.6 km/h 4.0 mph /  6.4 km/h 80 % 0.00 in /  0 mm 0 W/m2
23:14 43.7 °F /  6.5 °C 37.9 °F /  3.3 °C 30.59 in /  1035.8 hPa ESE 1.0 mph /  1.6 km/h 4.0 mph /  6.4 km/h 80 % 0.00 in /  0 mm 0 W/m2
23:19 43.7 °F /  6.5 °C 37.9 °F /  3.3 °C 30.59 in /  1035.8 hPa SE 2.0 mph /  3.2 km/h 5.0 mph /  8 km/h 80 % 0.00 in /  0 mm 0 W/m2
23:24 43.7 °F /  6.5 °C 37.9 °F /  3.3 °C 30.59 in /  1035.8 hPa SE 1.0 mph /  1.6 km/h 5.0 mph /  8 km/h 80 % 0.00 in /  0 mm 0 W/m2
23:29 43.5 °F /  6.4 °C 37.8 °F /  3.2 °C 30.59 in /  1035.8 hPa SE 1.0 mph /  1.6 km/h 4.0 mph /  6.4 km/h 80 % 0.00 in /  0 mm 0 W/m2
23:34 43.5 °F /  6.4 °C 37.8 °F /  3.2 °C 30.60 in /  1036.1 hPa Calm   3.0 mph /  4.8 km/h 80 % 0.00 in /  0 mm 0 W/m2
23:39 43.5 °F /  6.4 °C 37.8 °F /  3.2 °C 30.60 in /  1036.1 hPa Calm   1.0 mph /  1.6 km/h 80 % 0.00 in /  0 mm 0 W/m2
23:44 43.5 °F /  6.4 °C 37.8 °F /  3.2 °C 30.60 in /  1036.1 hPa Calm   2.0 mph /  3.2 km/h 80 % 0.00 in /  0 mm 0 W/m2
23:49 43.3 °F /  6.3 °C 37.6 °F /  3.1 °C 30.60 in /  1036.1 hPa SE 1.0 mph /  1.6 km/h 2.0 mph /  3.2 km/h 80 % 0.00 in /  0 mm 0 W/m2
23:54 43.3 °F /  6.3 °C 37.6 °F /  3.1 °C 30.60 in /  1036.1 hPa SE 1.0 mph /  1.6 km/h 5.0 mph /  8 km/h 80 % 0.00 in /  0 mm 0 W/m2
23:59 43.3 °F /  6.3 °C 37.6 °F /  3.1 °C 30.60 in /  1036.1 hPa SE 2.0 mph /  3.2 km/h 5.0 mph /  8 km/h 80 % 0.00 in /  0 mm 0 W/m2
Delerius-Weather
Compliments of Weather Underground - 2.25 mb

Data updates at regular intervals.